createdAt,value
2023-03-06T00:05:10.499Z,-0.7
2023-03-06T00:10:49.473Z,-0.4
2023-03-06T00:16:23.580Z,-0.5
2023-03-06T00:22:12.955Z,-0.5
2023-03-06T00:27:43.063Z,-0.4
2023-03-06T00:32:58.564Z,-0.5
2023-03-06T00:38:28.706Z,-0.6
2023-03-06T00:44:17.439Z,-0.7
2023-03-06T00:49:40.227Z,-0.7
2023-03-06T00:55:08.228Z,-0.9
2023-03-06T01:00:59.549Z,-0.4
2023-03-06T01:06:25.499Z,-0.5
2023-03-06T01:11:56.880Z,-0.6
2023-03-06T01:17:15.366Z,-0.7
2023-03-06T01:23:08.460Z,-0.7
2023-03-06T01:28:36.272Z,-0.7
2023-03-06T01:34:00.806Z,-0.7
2023-03-06T01:39:31.300Z,-0.9
2023-03-06T01:45:04.777Z,-0.9
2023-03-06T01:50:47.942Z,-1.2
2023-03-06T01:56:14.438Z,-1.1
2023-03-06T02:01:39.308Z,-1.2
2023-03-06T02:07:19.791Z,-1.2
2023-03-06T02:13:00.528Z,-1.2
2023-03-06T02:18:16.057Z,-1.3
2023-03-06T02:23:59.892Z,-1.7
2023-03-06T02:29:29.599Z,-1.7
2023-03-06T02:34:57.955Z,-1.8
2023-03-06T02:40:24.323Z,-1.8
2023-03-06T02:46:09.867Z,-1.7
2023-03-06T02:51:40.202Z,-1.6
2023-03-06T02:57:07.942Z,-1.6
2023-03-06T03:02:55.104Z,-1.5
2023-03-06T03:08:18.583Z,-1.8
2023-03-06T03:13:54.797Z,-2
2023-03-06T03:24:53.289Z,-2.1
2023-03-06T03:30:31.159Z,-2.2
2023-03-06T03:36:12.518Z,-2
2023-03-06T03:41:30.047Z,-2.5
2023-03-06T03:47:16.318Z,-2.4
2023-03-06T03:52:46.290Z,-2.2
2023-03-06T03:58:08.914Z,-2
2023-03-06T04:03:41.410Z,-2
2023-03-06T04:09:14.381Z,-2.1
2023-03-06T04:14:35.761Z,-2.1
2023-03-06T04:20:06.180Z,-2.2
2023-03-06T04:25:50.367Z,-2.2
2023-03-06T04:31:25.684Z,-2.1
2023-03-06T04:37:06.311Z,-2
2023-03-06T04:42:39.439Z,-2.2
2023-03-06T04:47:49.991Z,-2.1
2023-03-06T04:53:25.903Z,-1.9
2023-03-06T04:59:06.128Z,-1.8
2023-03-06T05:04:51.126Z,-1.8
2023-03-06T05:10:15.460Z,-1.8
2023-03-06T05:15:48.016Z,-1.8
2023-03-06T05:21:16.448Z,-1.9
2023-03-06T05:26:35.870Z,-2
2023-03-06T05:32:18.035Z,-1.9
2023-03-06T05:37:51.559Z,-2.1
2023-03-06T05:43:24.658Z,-1.9
2023-03-06T05:48:49.866Z,-1.8
2023-03-06T05:54:26.168Z,-1.8
2023-03-06T06:00:11.935Z,-1.5
2023-03-06T06:05:25.731Z,-1.3
2023-03-06T06:11:16.748Z,-1.2
2023-03-06T06:16:50.310Z,-1.2
2023-03-06T06:22:03.889Z,-1.4
2023-03-06T06:27:52.808Z,-1.7
2023-03-06T06:33:08.132Z,-1.8
2023-03-06T06:38:48.113Z,-1.7
2023-03-06T06:44:35.762Z,-1.8
2023-03-06T06:50:06.764Z,-1.4
2023-03-06T06:55:32.103Z,-1.2
2023-03-06T07:00:58.761Z,-0.9
2023-03-06T07:06:43.424Z,-0.9
2023-03-06T07:12:11.358Z,-1.4
2023-03-06T07:17:45.829Z,-1.3
2023-03-06T07:23:20.728Z,-1.2
2023-03-06T07:28:52.567Z,-1
2023-03-06T07:34:12.560Z,-0.6
2023-03-06T07:39:49.479Z,-0.5
2023-03-06T07:45:28.916Z,-0.5
2023-03-06T07:51:10.121Z,-0.4
2023-03-06T07:56:28.908Z,-0.1
2023-03-06T08:01:49.776Z,0.2
2023-03-06T08:07:49.069Z,0.4
2023-03-06T08:13:00.884Z,0.5
2023-03-06T08:18:35.484Z,0.7
2023-03-06T08:29:58.200Z,1
2023-03-06T08:35:15.180Z,1.5
2023-03-06T08:41:02.158Z,2.1
2023-03-06T08:46:21.501Z,2
2023-03-06T08:52:12.736Z,2.7
2023-03-06T08:57:33.274Z,2.3
2023-03-06T09:03:07.980Z,2.1
2023-03-06T09:08:52.693Z,4.1
2023-03-06T09:20:04.786Z,3.7
2023-03-06T09:25:30.062Z,3.5
2023-03-06T09:30:54.895Z,4.7
2023-03-06T09:36:45.823Z,4.6
2023-03-06T09:42:21.923Z,4.3
2023-03-06T09:47:45.496Z,5.1
2023-03-06T09:53:11.306Z,5.2
2023-03-06T09:58:53.142Z,5.7
2023-03-06T10:04:19.405Z,6.3
2023-03-06T10:10:13.429Z,5
2023-03-06T10:15:37.267Z,5.3
2023-03-06T10:21:25.410Z,4.9
2023-03-06T10:26:59.079Z,6.3
2023-03-06T10:32:48.144Z,6
2023-03-06T10:38:05.867Z,5.6
2023-03-06T10:43:50.570Z,6.1
2023-03-06T10:49:14.042Z,6.1
2023-03-06T10:54:53.433Z,6.5
2023-03-06T11:00:10.818Z,6.5
2023-03-06T11:05:57.359Z,6.8
2023-03-06T11:11:36.648Z,6.7
2023-03-06T11:17:08.413Z,7.2
2023-03-06T11:22:37.443Z,8
2023-03-06T11:28:34.387Z,7.2
2023-03-06T11:34:05.979Z,7.6
2023-03-06T11:39:24.450Z,7.2
2023-03-06T11:45:04.003Z,7.1
2023-03-06T11:50:56.442Z,8.4
2023-03-06T11:56:12.973Z,7.9
2023-03-06T12:02:10.386Z,8.6
2023-03-06T12:07:38.466Z,8.7
2023-03-06T12:12:56.965Z,8.5
2023-03-06T12:18:40.032Z,8.5
2023-03-06T12:24:21.611Z,8.8
2023-03-06T12:30:00.980Z,7.9
2023-03-06T12:35:43.310Z,8.3
2023-03-06T12:41:16.536Z,9
2023-03-06T12:46:43.342Z,8.8
2023-03-06T12:52:28.524Z,8.8
2023-03-06T12:57:55.114Z,8.3
2023-03-06T13:03:38.647Z,7.8
2023-03-06T13:14:58.389Z,8.6
2023-03-06T13:20:21.868Z,9.1
2023-03-06T13:26:06.556Z,9
2023-03-06T13:31:28.165Z,9.4
2023-03-06T13:37:22.804Z,9.2
2023-03-06T13:42:42.032Z,9
2023-03-06T13:48:42.910Z,9.5
2023-03-06T13:54:15.978Z,8.9
2023-03-06T13:59:29.328Z,9.2
2023-03-06T14:05:10.312Z,9.3
2023-03-06T14:10:54.102Z,9.2
2023-03-06T14:16:23.723Z,9
2023-03-06T14:22:17.945Z,8.1
2023-03-06T14:27:39.026Z,7.9
2023-03-06T14:33:16.522Z,9.2
2023-03-06T14:39:12.207Z,7.5
2023-03-06T14:44:40.140Z,7.7
2023-03-06T14:50:15.509Z,8.3
2023-03-06T14:55:38.248Z,7.9
2023-03-06T15:01:08.815Z,8.4
2023-03-06T15:07:07.815Z,7.8
2023-03-06T15:12:31.728Z,8.6
2023-03-06T15:18:04.403Z,9.1
2023-03-06T15:23:43.492Z,8.4
2023-03-06T15:29:27.250Z,8.1
2023-03-06T15:34:59.690Z,7.7
2023-03-06T15:40:25.888Z,7.7
2023-03-06T15:46:04.402Z,7.8
2023-03-06T15:51:41.560Z,7.5
2023-03-06T15:57:29.478Z,7.5
2023-03-06T16:02:42.740Z,6.9
2023-03-06T16:08:36.971Z,7
2023-03-06T16:14:15.594Z,6.8
2023-03-06T16:19:42.539Z,6.5
2023-03-06T16:25:13.361Z,6.3
2023-03-06T16:30:42.693Z,6.2
2023-03-06T16:36:23.449Z,6
2023-03-06T16:41:58.498Z,5.9
2023-03-06T16:47:30.699Z,5.7
2023-03-06T16:53:13.463Z,5.7
2023-03-06T16:58:51.223Z,5.7
2023-03-06T17:10:00.384Z,5.6
2023-03-06T17:15:08.310Z,5.5
2023-03-06T17:20:50.303Z,5.5
2023-03-06T17:26:21.152Z,5.3
2023-03-06T17:32:08.972Z,5.1
2023-03-06T17:37:40.044Z,5.4
2023-03-06T17:43:26.460Z,5.3
2023-03-06T17:48:37.811Z,5.2
2023-03-06T17:54:27.165Z,5.3
2023-03-06T17:59:48.786Z,5.2
2023-03-06T18:05:22.150Z,4.9
2023-03-06T18:10:57.377Z,4.9
2023-03-06T18:16:25.388Z,4.4
2023-03-06T18:22:16.318Z,4.3
2023-03-06T18:27:54.765Z,3.9
2023-03-06T18:33:09.338Z,3.9
2023-03-06T18:39:05.315Z,3.8
2023-03-06T18:44:16.421Z,4.1
2023-03-06T18:50:03.345Z,3.6
2023-03-06T18:55:44.418Z,3.8
2023-03-06T19:01:12.496Z,3.7
2023-03-06T19:06:43.106Z,3.7
2023-03-06T19:12:14.491Z,3.7
2023-03-06T19:17:55.864Z,3.7
2023-03-06T19:23:28.304Z,3.9
2023-03-06T19:28:53.026Z,4.3
2023-03-06T19:34:29.005Z,4.4
2023-03-06T19:39:55.886Z,4.7
2023-03-06T19:45:44.576Z,4.8
2023-03-06T19:51:05.756Z,4.7
2023-03-06T19:56:38.790Z,4.5
2023-03-06T20:02:26.744Z,4.5
2023-03-06T20:07:57.135Z,4.5
2023-03-06T20:13:09.973Z,4.3
2023-03-06T20:18:56.401Z,4.2
2023-03-06T20:24:18.948Z,3.9
2023-03-06T20:30:12.726Z,3.8
2023-03-06T20:35:33.440Z,3.6
2023-03-06T20:40:56.756Z,3.4
2023-03-06T20:46:43.407Z,3.1
2023-03-06T20:52:09.468Z,3.2
2023-03-06T20:57:35.585Z,3.2
2023-03-06T21:03:26.030Z,2.9
2023-03-06T21:08:37.613Z,2.7
2023-03-06T21:19:53.338Z,3.4
2023-03-06T21:25:27.637Z,3.5
2023-03-06T21:31:05.290Z,3.5
2023-03-06T21:36:25.915Z,3.5
2023-03-06T21:42:21.998Z,3.5
2023-03-06T21:47:48.620Z,3.5
2023-03-06T21:53:09.558Z,3.3
2023-03-06T21:58:41.470Z,3.1
2023-03-06T22:04:32.675Z,3
2023-03-06T22:09:45.829Z,2.9
2023-03-06T22:15:20.659Z,2.8
2023-03-06T22:20:54.421Z,2.7
2023-03-06T22:26:45.766Z,2.6
2023-03-06T22:32:20.014Z,2.5
2023-03-06T22:37:37.074Z,2.5
2023-03-06T22:43:23.007Z,2.4
2023-03-06T22:48:42.288Z,2.2
2023-03-06T22:54:10.160Z,2.1
2023-03-06T22:59:53.821Z,2
2023-03-06T23:05:19.095Z,2
2023-03-06T23:11:09.313Z,2.1
2023-03-06T23:16:33.545Z,2
2023-03-06T23:21:59.445Z,2
2023-03-06T23:27:48.041Z,2
2023-03-06T23:32:58.978Z,2.2
2023-03-06T23:38:44.854Z,2.1
2023-03-06T23:44:12.047Z,2.1
2023-03-06T23:49:48.429Z,2
2023-03-06T23:55:11.541Z,1.8
